sensor_id;sensor_type;location;lat;lon;timestamp;P1;durP1;ratioP1;P2;durP2;ratioP2
16954;SDS011;8594;52.052;8.354;2024-02-28T00:02:17;44.73;;;20.07;;
16954;SDS011;8594;52.052;8.354;2024-02-28T00:04:44;44.40;;;20.77;;
16954;SDS011;8594;52.052;8.354;2024-02-28T00:07:11;43.30;;;18.87;;
16954;SDS011;8594;52.052;8.354;2024-02-28T00:09:37;42.33;;;19.43;;
16954;SDS011;8594;52.052;8.354;2024-02-28T00:12:04;46.13;;;20.30;;
16954;SDS011;8594;52.052;8.354;2024-02-28T00:14:33;45.23;;;19.40;;
16954;SDS011;8594;52.052;8.354;2024-02-28T00:16:59;44.47;;;20.27;;
16954;SDS011;8594;52.052;8.354;2024-02-28T00:19:26;43.30;;;19.33;;
16954;SDS011;8594;52.052;8.354;2024-02-28T00:21:53;44.67;;;19.37;;
16954;SDS011;8594;52.052;8.354;2024-02-28T00:24:20;41.97;;;18.80;;
16954;SDS011;8594;52.052;8.354;2024-02-28T00:26:46;42.60;;;20.57;;
16954;SDS011;8594;52.052;8.354;2024-02-28T00:29:13;43.57;;;20.33;;
16954;SDS011;8594;52.052;8.354;2024-02-28T00:31:41;39.93;;;19.17;;
16954;SDS011;8594;52.052;8.354;2024-02-28T00:34:08;42.27;;;19.53;;
16954;SDS011;8594;52.052;8.354;2024-02-28T00:36:35;41.70;;;19.07;;
16954;SDS011;8594;52.052;8.354;2024-02-28T00:39:02;44.60;;;20.60;;
16954;SDS011;8594;52.052;8.354;2024-02-28T00:41:29;42.57;;;19.13;;
16954;SDS011;8594;52.052;8.354;2024-02-28T00:43:55;43.60;;;19.77;;
16954;SDS011;8594;52.052;8.354;2024-02-28T00:46:22;41.60;;;19.13;;
16954;SDS011;8594;52.052;8.354;2024-02-28T00:48:50;48.33;;;20.30;;
16954;SDS011;8594;52.052;8.354;2024-02-28T00:51:17;40.43;;;17.90;;
16954;SDS011;8594;52.052;8.354;2024-02-28T00:53:44;43.33;;;20.33;;
16954;SDS011;8594;52.052;8.354;2024-02-28T00:56:11;50.53;;;21.37;;
16954;SDS011;8594;52.052;8.354;2024-02-28T00:58:38;42.93;;;20.47;;
16954;SDS011;8594;52.052;8.354;2024-02-28T01:01:05;53.40;;;22.17;;
16954;SDS011;8594;52.052;8.354;2024-02-28T01:03:32;49.13;;;21.23;;
16954;SDS011;8594;52.052;8.354;2024-02-28T01:06:00;52.83;;;22.70;;
16954;SDS011;8594;52.052;8.354;2024-02-28T01:08:28;50.00;;;20.70;;
16954;SDS011;8594;52.052;8.354;2024-02-28T01:10:55;45.93;;;20.37;;
16954;SDS011;8594;52.052;8.354;2024-02-28T01:13:23;45.77;;;20.37;;
16954;SDS011;8594;52.052;8.354;2024-02-28T01:15:50;52.47;;;21.87;;
16954;SDS011;8594;52.052;8.354;2024-02-28T01:18:17;52.30;;;21.00;;
16954;SDS011;8594;52.052;8.354;2024-02-28T01:20:44;47.60;;;20.23;;
16954;SDS011;8594;52.052;8.354;2024-02-28T01:23:12;48.47;;;20.87;;
16954;SDS011;8594;52.052;8.354;2024-02-28T01:25:38;46.33;;;20.63;;
16954;SDS011;8594;52.052;8.354;2024-02-28T01:28:05;47.70;;;21.77;;
16954;SDS011;8594;52.052;8.354;2024-02-28T01:30:32;52.70;;;21.30;;
16954;SDS011;8594;52.052;8.354;2024-02-28T01:32:58;50.43;;;21.70;;
16954;SDS011;8594;52.052;8.354;2024-02-28T01:35:25;46.40;;;21.00;;
16954;SDS011;8594;52.052;8.354;2024-02-28T01:37:52;47.20;;;21.40;;
16954;SDS011;8594;52.052;8.354;2024-02-28T01:40:20;45.27;;;20.93;;
16954;SDS011;8594;52.052;8.354;2024-02-28T01:42:47;50.27;;;21.23;;
16954;SDS011;8594;52.052;8.354;2024-02-28T01:45:14;48.40;;;21.50;;
16954;SDS011;8594;52.052;8.354;2024-02-28T01:47:40;41.50;;;19.23;;
16954;SDS011;8594;52.052;8.354;2024-02-28T01:50:08;45.13;;;20.57;;
16954;SDS011;8594;52.052;8.354;2024-02-28T01:52:37;46.60;;;20.47;;
16954;SDS011;8594;52.052;8.354;2024-02-28T01:55:06;47.87;;;19.90;;
16954;SDS011;8594;52.052;8.354;2024-02-28T01:57:35;47.67;;;21.10;;
16954;SDS011;8594;52.052;8.354;2024-02-28T02:00:03;46.93;;;21.17;;
16954;SDS011;8594;52.052;8.354;2024-02-28T02:02:33;49.37;;;21.77;;
16954;SDS011;8594;52.052;8.354;2024-02-28T02:05:00;45.87;;;20.07;;
16954;SDS011;8594;52.052;8.354;2024-02-28T02:07:26;49.20;;;20.83;;
16954;SDS011;8594;52.052;8.354;2024-02-28T02:09:53;51.73;;;20.60;;
16954;SDS011;8594;52.052;8.354;2024-02-28T02:12:21;48.23;;;20.90;;
16954;SDS011;8594;52.052;8.354;2024-02-28T02:14:49;44.40;;;20.83;;
16954;SDS011;8594;52.052;8.354;2024-02-28T02:17:16;46.57;;;21.03;;
16954;SDS011;8594;52.052;8.354;2024-02-28T02:19:43;48.83;;;22.70;;
16954;SDS011;8594;52.052;8.354;2024-02-28T02:22:10;48.70;;;21.17;;
16954;SDS011;8594;52.052;8.354;2024-02-28T02:24:41;50.00;;;21.93;;
16954;SDS011;8594;52.052;8.354;2024-02-28T02:27:08;50.83;;;22.33;;
16954;SDS011;8594;52.052;8.354;2024-02-28T02:29:35;47.27;;;20.87;;
16954;SDS011;8594;52.052;8.354;2024-02-28T02:32:01;51.33;;;22.00;;
16954;SDS011;8594;52.052;8.354;2024-02-28T02:34:29;51.77;;;22.77;;
16954;SDS011;8594;52.052;8.354;2024-02-28T02:36:56;49.87;;;21.33;;
16954;SDS011;8594;52.052;8.354;2024-02-28T02:39:23;54.07;;;22.00;;
16954;SDS011;8594;52.052;8.354;2024-02-28T02:41:51;49.00;;;21.33;;
16954;SDS011;8594;52.052;8.354;2024-02-28T02:44:17;48.77;;;21.63;;
16954;SDS011;8594;52.052;8.354;2024-02-28T02:46:44;54.17;;;22.43;;
16954;SDS011;8594;52.052;8.354;2024-02-28T02:49:11;51.63;;;22.27;;
16954;SDS011;8594;52.052;8.354;2024-02-28T02:51:37;48.17;;;21.30;;
16954;SDS011;8594;52.052;8.354;2024-02-28T02:54:04;43.53;;;20.90;;
16954;SDS011;8594;52.052;8.354;2024-02-28T02:56:31;47.20;;;21.90;;
16954;SDS011;8594;52.052;8.354;2024-02-28T02:58:59;43.63;;;20.97;;
16954;SDS011;8594;52.052;8.354;2024-02-28T03:01:25;49.90;;;21.93;;
16954;SDS011;8594;52.052;8.354;2024-02-28T03:03:52;47.03;;;21.87;;
16954;SDS011;8594;52.052;8.354;2024-02-28T03:06:19;51.57;;;21.47;;
16954;SDS011;8594;52.052;8.354;2024-02-28T03:08:49;49.73;;;21.93;;
16954;SDS011;8594;52.052;8.354;2024-02-28T03:11:15;54.03;;;22.30;;
16954;SDS011;8594;52.052;8.354;2024-02-28T03:13:42;51.03;;;22.53;;
16954;SDS011;8594;52.052;8.354;2024-02-28T03:16:10;53.77;;;23.10;;
16954;SDS011;8594;52.052;8.354;2024-02-28T03:18:37;52.20;;;21.27;;
16954;SDS011;8594;52.052;8.354;2024-02-28T03:21:04;55.30;;;23.00;;
16954;SDS011;8594;52.052;8.354;2024-02-28T03:23:30;56.17;;;24.53;;
16954;SDS011;8594;52.052;8.354;2024-02-28T03:25:58;59.37;;;25.07;;
16954;SDS011;8594;52.052;8.354;2024-02-28T03:28:24;61.63;;;25.93;;
16954;SDS011;8594;52.052;8.354;2024-02-28T03:30:51;60.23;;;26.73;;
16954;SDS011;8594;52.052;8.354;2024-02-28T03:33:19;63.17;;;25.80;;
16954;SDS011;8594;52.052;8.354;2024-02-28T03:35:47;84.80;;;27.87;;
16954;SDS011;8594;52.052;8.354;2024-02-28T03:38:13;72.67;;;26.70;;
16954;SDS011;8594;52.052;8.354;2024-02-28T03:40:40;85.90;;;28.10;;
16954;SDS011;8594;52.052;8.354;2024-02-28T03:43:07;75.10;;;27.67;;
16954;SDS011;8594;52.052;8.354;2024-02-28T03:45:36;73.70;;;27.10;;
16954;SDS011;8594;52.052;8.354;2024-02-28T03:48:04;66.83;;;27.30;;
16954;SDS011;8594;52.052;8.354;2024-02-28T03:50:33;62.47;;;25.67;;
16954;SDS011;8594;52.052;8.354;2024-02-28T03:52:59;71.27;;;25.83;;
16954;SDS011;8594;52.052;8.354;2024-02-28T03:55:26;63.10;;;26.50;;
16954;SDS011;8594;52.052;8.354;2024-02-28T03:57:53;75.27;;;26.93;;
16954;SDS011;8594;52.052;8.354;2024-02-28T04:00:20;60.20;;;25.30;;
16954;SDS011;8594;52.052;8.354;2024-02-28T04:02:46;65.27;;;25.47;;
16954;SDS011;8594;52.052;8.354;2024-02-28T04:05:13;81.00;;;25.67;;
16954;SDS011;8594;52.052;8.354;2024-02-28T04:07:43;66.50;;;25.23;;
16954;SDS011;8594;52.052;8.354;2024-02-28T04:10:10;60.37;;;25.27;;
16954;SDS011;8594;52.052;8.354;2024-02-28T04:12:37;63.50;;;25.57;;
16954;SDS011;8594;52.052;8.354;2024-02-28T04:15:04;63.33;;;25.37;;
16954;SDS011;8594;52.052;8.354;2024-02-28T04:17:31;59.33;;;25.50;;
16954;SDS011;8594;52.052;8.354;2024-02-28T04:19:58;84.00;;;26.20;;
16954;SDS011;8594;52.052;8.354;2024-02-28T04:22:29;69.70;;;24.50;;
16954;SDS011;8594;52.052;8.354;2024-02-28T04:24:57;79.63;;;24.97;;
16954;SDS011;8594;52.052;8.354;2024-02-28T04:27:24;60.30;;;24.33;;
16954;SDS011;8594;52.052;8.354;2024-02-28T04:29:50;63.10;;;25.43;;
16954;SDS011;8594;52.052;8.354;2024-02-28T04:32:17;60.80;;;25.90;;
16954;SDS011;8594;52.052;8.354;2024-02-28T04:34:44;57.03;;;25.30;;
16954;SDS011;8594;52.052;8.354;2024-02-28T04:37:10;54.90;;;23.70;;
16954;SDS011;8594;52.052;8.354;2024-02-28T04:39:37;60.07;;;23.57;;
16954;SDS011;8594;52.052;8.354;2024-02-28T04:42:05;58.27;;;23.03;;
16954;SDS011;8594;52.052;8.354;2024-02-28T04:44:32;70.23;;;25.10;;
16954;SDS011;8594;52.052;8.354;2024-02-28T04:46:59;71.40;;;25.03;;
16954;SDS011;8594;52.052;8.354;2024-02-28T04:49:27;88.13;;;24.73;;
16954;SDS011;8594;52.052;8.354;2024-02-28T04:51:54;56.83;;;23.83;;
16954;SDS011;8594;52.052;8.354;2024-02-28T04:54:21;55.77;;;24.03;;
16954;SDS011;8594;52.052;8.354;2024-02-28T04:56:47;75.70;;;25.03;;
16954;SDS011;8594;52.052;8.354;2024-02-28T04:59:17;58.10;;;23.70;;
16954;SDS011;8594;52.052;8.354;2024-02-28T05:01:44;83.07;;;24.73;;
16954;SDS011;8594;52.052;8.354;2024-02-28T05:04:10;61.43;;;23.07;;
16954;SDS011;8594;52.052;8.354;2024-02-28T05:06:37;68.33;;;24.37;;
16954;SDS011;8594;52.052;8.354;2024-02-28T05:09:04;51.67;;;22.60;;
16954;SDS011;8594;52.052;8.354;2024-02-28T05:11:31;53.60;;;23.63;;
16954;SDS011;8594;52.052;8.354;2024-02-28T05:13:58;51.80;;;22.37;;
16954;SDS011;8594;52.052;8.354;2024-02-28T05:16:26;55.53;;;23.03;;
16954;SDS011;8594;52.052;8.354;2024-02-28T05:18:52;54.43;;;22.87;;
16954;SDS011;8594;52.052;8.354;2024-02-28T05:21:19;47.73;;;21.07;;
16954;SDS011;8594;52.052;8.354;2024-02-28T05:23:46;51.07;;;21.80;;
16954;SDS011;8594;52.052;8.354;2024-02-28T05:26:13;51.73;;;22.80;;
16954;SDS011;8594;52.052;8.354;2024-02-28T05:28:40;55.70;;;22.50;;
16954;SDS011;8594;52.052;8.354;2024-02-28T05:31:19;61.83;;;24.30;;
16954;SDS011;8594;52.052;8.354;2024-02-28T05:33:49;63.33;;;22.03;;
16954;SDS011;8594;52.052;8.354;2024-02-28T05:36:17;74.53;;;21.87;;
16954;SDS011;8594;52.052;8.354;2024-02-28T05:38:44;61.30;;;23.10;;
16954;SDS011;8594;52.052;8.354;2024-02-28T05:41:11;77.13;;;24.30;;
16954;SDS011;8594;52.052;8.354;2024-02-28T05:43:39;83.63;;;23.47;;
16954;SDS011;8594;52.052;8.354;2024-02-28T05:46:06;55.83;;;23.63;;
16954;SDS011;8594;52.052;8.354;2024-02-28T05:48:33;99.27;;;24.87;;
16954;SDS011;8594;52.052;8.354;2024-02-28T05:51:01;60.87;;;22.67;;
16954;SDS011;8594;52.052;8.354;2024-02-28T05:53:29;65.30;;;22.43;;
16954;SDS011;8594;52.052;8.354;2024-02-28T05:55:57;65.37;;;25.10;;
16954;SDS011;8594;52.052;8.354;2024-02-28T05:58:24;72.63;;;23.97;;
16954;SDS011;8594;52.052;8.354;2024-02-28T06:00:51;77.83;;;25.47;;
16954;SDS011;8594;52.052;8.354;2024-02-28T06:03:18;77.80;;;23.77;;
16954;SDS011;8594;52.052;8.354;2024-02-28T06:05:45;101.47;;;26.67;;
16954;SDS011;8594;52.052;8.354;2024-02-28T06:08:13;76.20;;;27.70;;
16954;SDS011;8594;52.052;8.354;2024-02-28T06:10:40;60.13;;;24.37;;
16954;SDS011;8594;52.052;8.354;2024-02-28T06:13:08;81.13;;;27.37;;
16954;SDS011;8594;52.052;8.354;2024-02-28T06:15:35;75.47;;;27.50;;
16954;SDS011;8594;52.052;8.354;2024-02-28T06:18:02;65.93;;;24.80;;
16954;SDS011;8594;52.052;8.354;2024-02-28T06:20:28;92.23;;;28.07;;
16954;SDS011;8594;52.052;8.354;2024-02-28T06:22:56;85.13;;;27.47;;
16954;SDS011;8594;52.052;8.354;2024-02-28T06:25:24;69.77;;;26.40;;
16954;SDS011;8594;52.052;8.354;2024-02-28T06:27:52;78.07;;;27.30;;
16954;SDS011;8594;52.052;8.354;2024-02-28T06:30:19;103.03;;;29.00;;
16954;SDS011;8594;52.052;8.354;2024-02-28T06:32:46;86.00;;;27.07;;
16954;SDS011;8594;52.052;8.354;2024-02-28T06:35:13;74.77;;;26.47;;
16954;SDS011;8594;52.052;8.354;2024-02-28T06:37:41;89.57;;;27.33;;
16954;SDS011;8594;52.052;8.354;2024-02-28T06:40:09;78.93;;;28.50;;
16954;SDS011;8594;52.052;8.354;2024-02-28T06:42:37;65.50;;;25.00;;
16954;SDS011;8594;52.052;8.354;2024-02-28T06:45:05;78.10;;;25.00;;
16954;SDS011;8594;52.052;8.354;2024-02-28T06:47:33;59.63;;;23.73;;
16954;SDS011;8594;52.052;8.354;2024-02-28T06:50:01;69.33;;;25.53;;
16954;SDS011;8594;52.052;8.354;2024-02-28T06:52:29;70.47;;;25.77;;
16954;SDS011;8594;52.052;8.354;2024-02-28T06:54:56;86.17;;;26.57;;
16954;SDS011;8594;52.052;8.354;2024-02-28T06:57:23;72.27;;;25.77;;
16954;SDS011;8594;52.052;8.354;2024-02-28T06:59:51;77.93;;;25.93;;
16954;SDS011;8594;52.052;8.354;2024-02-28T07:02:17;74.57;;;26.53;;
16954;SDS011;8594;52.052;8.354;2024-02-28T07:04:44;62.43;;;24.97;;
16954;SDS011;8594;52.052;8.354;2024-02-28T07:07:11;71.07;;;25.83;;
16954;SDS011;8594;52.052;8.354;2024-02-28T07:09:37;69.00;;;26.13;;
16954;SDS011;8594;52.052;8.354;2024-02-28T07:12:05;71.10;;;25.97;;
16954;SDS011;8594;52.052;8.354;2024-02-28T07:14:32;64.83;;;25.40;;
16954;SDS011;8594;52.052;8.354;2024-02-28T07:17:00;70.73;;;24.10;;
16954;SDS011;8594;52.052;8.354;2024-02-28T07:19:27;68.53;;;25.30;;
16954;SDS011;8594;52.052;8.354;2024-02-28T07:21:54;64.00;;;24.63;;
16954;SDS011;8594;52.052;8.354;2024-02-28T07:24:20;67.73;;;24.03;;
16954;SDS011;8594;52.052;8.354;2024-02-28T07:26:47;64.27;;;24.83;;
16954;SDS011;8594;52.052;8.354;2024-02-28T07:29:16;76.77;;;25.70;;
16954;SDS011;8594;52.052;8.354;2024-02-28T07:31:42;72.90;;;24.63;;
16954;SDS011;8594;52.052;8.354;2024-02-28T07:34:11;74.40;;;24.87;;
16954;SDS011;8594;52.052;8.354;2024-02-28T07:36:38;77.27;;;25.83;;
16954;SDS011;8594;52.052;8.354;2024-02-28T07:39:05;75.80;;;24.27;;
16954;SDS011;8594;52.052;8.354;2024-02-28T07:41:32;69.50;;;24.83;;
16954;SDS011;8594;52.052;8.354;2024-02-28T07:43:59;73.87;;;26.33;;
16954;SDS011;8594;52.052;8.354;2024-02-28T07:46:26;69.77;;;23.77;;
16954;SDS011;8594;52.052;8.354;2024-02-28T07:48:53;68.90;;;23.33;;
16954;SDS011;8594;52.052;8.354;2024-02-28T07:51:21;72.20;;;25.23;;
16954;SDS011;8594;52.052;8.354;2024-02-28T07:53:48;67.53;;;23.97;;
16954;SDS011;8594;52.052;8.354;2024-02-28T07:56:17;68.13;;;23.87;;
16954;SDS011;8594;52.052;8.354;2024-02-28T07:58:44;67.97;;;24.10;;
16954;SDS011;8594;52.052;8.354;2024-02-28T08:01:12;68.57;;;23.87;;
16954;SDS011;8594;52.052;8.354;2024-02-28T08:03:38;73.13;;;24.53;;
16954;SDS011;8594;52.052;8.354;2024-02-28T08:06:06;63.30;;;23.97;;
16954;SDS011;8594;52.052;8.354;2024-02-28T08:08:35;71.13;;;24.57;;
16954;SDS011;8594;52.052;8.354;2024-02-28T08:11:01;75.50;;;24.83;;
16954;SDS011;8594;52.052;8.354;2024-02-28T08:13:29;68.90;;;23.97;;
16954;SDS011;8594;52.052;8.354;2024-02-28T08:15:57;77.13;;;25.83;;
16954;SDS011;8594;52.052;8.354;2024-02-28T08:18:24;104.43;;;34.33;;
16954;SDS011;8594;52.052;8.354;2024-02-28T08:20:53;82.73;;;28.43;;
16954;SDS011;8594;52.052;8.354;2024-02-28T08:23:22;79.27;;;27.50;;
16954;SDS011;8594;52.052;8.354;2024-02-28T08:25:50;78.30;;;25.60;;
16954;SDS011;8594;52.052;8.354;2024-02-28T08:28:17;71.37;;;24.90;;
16954;SDS011;8594;52.052;8.354;2024-02-28T08:30:43;71.87;;;25.30;;
16954;SDS011;8594;52.052;8.354;2024-02-28T08:33:10;86.83;;;25.20;;
16954;SDS011;8594;52.052;8.354;2024-02-28T08:35:37;75.63;;;23.13;;
16954;SDS011;8594;52.052;8.354;2024-02-28T08:38:04;71.43;;;24.80;;
16954;SDS011;8594;52.052;8.354;2024-02-28T08:40:30;68.03;;;24.50;;
16954;SDS011;8594;52.052;8.354;2024-02-28T08:42:58;86.07;;;26.53;;
16954;SDS011;8594;52.052;8.354;2024-02-28T08:45:25;73.67;;;25.47;;
16954;SDS011;8594;52.052;8.354;2024-02-28T08:47:52;68.60;;;26.17;;
16954;SDS011;8594;52.052;8.354;2024-02-28T08:50:18;66.40;;;25.40;;
16954;SDS011;8594;52.052;8.354;2024-02-28T08:52:45;75.50;;;26.37;;
16954;SDS011;8594;52.052;8.354;2024-02-28T08:55:12;83.17;;;28.07;;
16954;SDS011;8594;52.052;8.354;2024-02-28T08:57:43;86.40;;;28.53;;
16954;SDS011;8594;52.052;8.354;2024-02-28T09:00:12;80.87;;;26.33;;
16954;SDS011;8594;52.052;8.354;2024-02-28T09:02:40;80.27;;;26.70;;
16954;SDS011;8594;52.052;8.354;2024-02-28T09:05:07;79.90;;;28.33;;
16954;SDS011;8594;52.052;8.354;2024-02-28T09:07:35;76.93;;;27.63;;
16954;SDS011;8594;52.052;8.354;2024-02-28T09:10:03;87.63;;;27.00;;
16954;SDS011;8594;52.052;8.354;2024-02-28T09:12:31;91.97;;;29.00;;
16954;SDS011;8594;52.052;8.354;2024-02-28T09:14:58;81.60;;;27.33;;
16954;SDS011;8594;52.052;8.354;2024-02-28T09:17:26;95.00;;;29.87;;
16954;SDS011;8594;52.052;8.354;2024-02-28T09:19:53;86.07;;;27.33;;
16954;SDS011;8594;52.052;8.354;2024-02-28T09:22:20;92.90;;;28.67;;
16954;SDS011;8594;52.052;8.354;2024-02-28T09:24:48;93.37;;;28.57;;
16954;SDS011;8594;52.052;8.354;2024-02-28T09:27:15;91.10;;;29.40;;
16954;SDS011;8594;52.052;8.354;2024-02-28T09:29:43;76.53;;;27.87;;
16954;SDS011;8594;52.052;8.354;2024-02-28T09:32:09;84.63;;;28.37;;
16954;SDS011;8594;52.052;8.354;2024-02-28T09:34:38;85.13;;;29.20;;
16954;SDS011;8594;52.052;8.354;2024-02-28T09:37:05;89.47;;;29.93;;
16954;SDS011;8594;52.052;8.354;2024-02-28T09:39:32;86.27;;;29.07;;
16954;SDS011;8594;52.052;8.354;2024-02-28T09:41:58;90.87;;;28.17;;
16954;SDS011;8594;52.052;8.354;2024-02-28T09:44:26;95.77;;;29.60;;
16954;SDS011;8594;52.052;8.354;2024-02-28T09:46:53;102.73;;;32.10;;
16954;SDS011;8594;52.052;8.354;2024-02-28T09:49:20;100.13;;;31.97;;
16954;SDS011;8594;52.052;8.354;2024-02-28T09:51:49;87.70;;;30.13;;
16954;SDS011;8594;52.052;8.354;2024-02-28T09:54:16;99.10;;;29.50;;
16954;SDS011;8594;52.052;8.354;2024-02-28T09:56:43;99.50;;;31.17;;
16954;SDS011;8594;52.052;8.354;2024-02-28T09:59:10;96.97;;;29.93;;
16954;SDS011;8594;52.052;8.354;2024-02-28T10:01:41;93.47;;;30.27;;
16954;SDS011;8594;52.052;8.354;2024-02-28T10:04:10;90.83;;;30.67;;
16954;SDS011;8594;52.052;8.354;2024-02-28T10:06:39;90.13;;;30.30;;
16954;SDS011;8594;52.052;8.354;2024-02-28T10:09:07;100.97;;;30.40;;
16954;SDS011;8594;52.052;8.354;2024-02-28T10:11:35;99.60;;;30.50;;
16954;SDS011;8594;52.052;8.354;2024-02-28T10:14:03;89.90;;;29.50;;
16954;SDS011;8594;52.052;8.354;2024-02-28T10:16:29;89.87;;;29.17;;
16954;SDS011;8594;52.052;8.354;2024-02-28T10:18:56;94.20;;;30.47;;
16954;SDS011;8594;52.052;8.354;2024-02-28T10:21:23;102.23;;;31.00;;
16954;SDS011;8594;52.052;8.354;2024-02-28T10:23:51;109.00;;;32.47;;
16954;SDS011;8594;52.052;8.354;2024-02-28T10:26:19;116.33;;;31.93;;
16954;SDS011;8594;52.052;8.354;2024-02-28T10:28:45;110.17;;;31.43;;
16954;SDS011;8594;52.052;8.354;2024-02-28T10:31:12;105.23;;;32.27;;
16954;SDS011;8594;52.052;8.354;2024-02-28T10:33:41;113.23;;;31.27;;
16954;SDS011;8594;52.052;8.354;2024-02-28T10:36:08;101.30;;;31.83;;
16954;SDS011;8594;52.052;8.354;2024-02-28T10:38:36;102.77;;;30.90;;
16954;SDS011;8594;52.052;8.354;2024-02-28T10:41:03;122.60;;;32.37;;
16954;SDS011;8594;52.052;8.354;2024-02-28T10:43:32;119.87;;;33.47;;
16954;SDS011;8594;52.052;8.354;2024-02-28T10:45:59;123.87;;;32.60;;
16954;SDS011;8594;52.052;8.354;2024-02-28T10:48:27;121.03;;;32.87;;
16954;SDS011;8594;52.052;8.354;2024-02-28T10:50:54;113.30;;;34.03;;
16954;SDS011;8594;52.052;8.354;2024-02-28T10:53:21;117.00;;;32.03;;
16954;SDS011;8594;52.052;8.354;2024-02-28T10:55:58;117.77;;;32.47;;
16954;SDS011;8594;52.052;8.354;2024-02-28T10:58:29;121.43;;;35.20;;
16954;SDS011;8594;52.052;8.354;2024-02-28T11:01:03;125.07;;;33.70;;
16954;SDS011;8594;52.052;8.354;2024-02-28T11:03:31;113.77;;;32.07;;
16954;SDS011;8594;52.052;8.354;2024-02-28T11:05:59;118.40;;;34.80;;
16954;SDS011;8594;52.052;8.354;2024-02-28T11:08:26;104.23;;;32.90;;
16954;SDS011;8594;52.052;8.354;2024-02-28T11:10:56;127.63;;;34.90;;
16954;SDS011;8594;52.052;8.354;2024-02-28T11:13:24;123.70;;;34.30;;
16954;SDS011;8594;52.052;8.354;2024-02-28T11:15:54;109.10;;;32.73;;
16954;SDS011;8594;52.052;8.354;2024-02-28T11:18:21;122.90;;;34.97;;
16954;SDS011;8594;52.052;8.354;2024-02-28T11:20:48;118.73;;;34.73;;
16954;SDS011;8594;52.052;8.354;2024-02-28T11:23:16;123.13;;;34.83;;
16954;SDS011;8594;52.052;8.354;2024-02-28T11:25:44;123.30;;;35.33;;
16954;SDS011;8594;52.052;8.354;2024-02-28T11:28:10;116.30;;;34.43;;
16954;SDS011;8594;52.052;8.354;2024-02-28T11:30:37;123.17;;;36.90;;
16954;SDS011;8594;52.052;8.354;2024-02-28T11:33:05;117.67;;;35.23;;
16954;SDS011;8594;52.052;8.354;2024-02-28T11:35:33;127.50;;;36.17;;
16954;SDS011;8594;52.052;8.354;2024-02-28T11:38:00;116.00;;;35.20;;
16954;SDS011;8594;52.052;8.354;2024-02-28T11:40:27;119.93;;;32.80;;
16954;SDS011;8594;52.052;8.354;2024-02-28T11:42:54;116.80;;;35.27;;
16954;SDS011;8594;52.052;8.354;2024-02-28T11:45:21;116.23;;;35.43;;
16954;SDS011;8594;52.052;8.354;2024-02-28T11:47:48;117.47;;;33.83;;
16954;SDS011;8594;52.052;8.354;2024-02-28T11:50:16;108.30;;;34.63;;
16954;SDS011;8594;52.052;8.354;2024-02-28T11:52:44;115.33;;;34.07;;
16954;SDS011;8594;52.052;8.354;2024-02-28T11:55:11;110.27;;;33.00;;
16954;SDS011;8594;52.052;8.354;2024-02-28T11:57:38;105.50;;;32.10;;
16954;SDS011;8594;52.052;8.354;2024-02-28T12:00:05;110.90;;;33.30;;
16954;SDS011;8594;52.052;8.354;2024-02-28T12:02:34;110.23;;;33.47;;
16954;SDS011;8594;52.052;8.354;2024-02-28T12:05:01;100.60;;;31.93;;
16954;SDS011;8594;52.052;8.354;2024-02-28T12:07:31;98.47;;;30.90;;
16954;SDS011;8594;52.052;8.354;2024-02-28T12:09:59;104.33;;;32.60;;
16954;SDS011;8594;52.052;8.354;2024-02-28T12:12:27;107.97;;;33.17;;
16954;SDS011;8594;52.052;8.354;2024-02-28T12:14:57;109.27;;;31.30;;
16954;SDS011;8594;52.052;8.354;2024-02-28T12:17:25;87.27;;;30.03;;
16954;SDS011;8594;52.052;8.354;2024-02-28T12:19:52;91.30;;;31.03;;
16954;SDS011;8594;52.052;8.354;2024-02-28T12:22:19;97.73;;;30.97;;
16954;SDS011;8594;52.052;8.354;2024-02-28T12:24:48;98.87;;;31.77;;
16954;SDS011;8594;52.052;8.354;2024-02-28T12:27:15;101.93;;;31.80;;
16954;SDS011;8594;52.052;8.354;2024-02-28T12:29:42;95.43;;;31.63;;
16954;SDS011;8594;52.052;8.354;2024-02-28T12:32:08;96.40;;;31.67;;
16954;SDS011;8594;52.052;8.354;2024-02-28T12:34:37;100.93;;;32.63;;
16954;SDS011;8594;52.052;8.354;2024-02-28T12:37:03;105.80;;;34.23;;
16954;SDS011;8594;52.052;8.354;2024-02-28T12:39:30;110.93;;;33.87;;
16954;SDS011;8594;52.052;8.354;2024-02-28T12:42:00;103.67;;;33.20;;
16954;SDS011;8594;52.052;8.354;2024-02-28T12:44:27;104.30;;;32.90;;
16954;SDS011;8594;52.052;8.354;2024-02-28T12:46:54;97.77;;;31.87;;
16954;SDS011;8594;52.052;8.354;2024-02-28T12:49:20;102.50;;;32.80;;
16954;SDS011;8594;52.052;8.354;2024-02-28T12:51:47;90.60;;;31.43;;
16954;SDS011;8594;52.052;8.354;2024-02-28T12:54:16;98.67;;;33.03;;
16954;SDS011;8594;52.052;8.354;2024-02-28T12:56:45;93.43;;;31.43;;
16954;SDS011;8594;52.052;8.354;2024-02-28T12:59:13;97.53;;;33.20;;
16954;SDS011;8594;52.052;8.354;2024-02-28T13:01:40;95.43;;;32.03;;
16954;SDS011;8594;52.052;8.354;2024-02-28T13:04:08;93.43;;;33.37;;
16954;SDS011;8594;52.052;8.354;2024-02-28T13:06:34;98.60;;;33.17;;
16954;SDS011;8594;52.052;8.354;2024-02-28T13:09:01;91.63;;;32.53;;
16954;SDS011;8594;52.052;8.354;2024-02-28T13:11:28;90.90;;;33.37;;
16954;SDS011;8594;52.052;8.354;2024-02-28T13:13:55;91.03;;;33.37;;
16954;SDS011;8594;52.052;8.354;2024-02-28T13:16:23;90.10;;;33.30;;
16954;SDS011;8594;52.052;8.354;2024-02-28T13:18:49;92.57;;;33.53;;
16954;SDS011;8594;52.052;8.354;2024-02-28T13:21:16;88.60;;;32.43;;
16954;SDS011;8594;52.052;8.354;2024-02-28T13:23:43;104.53;;;33.20;;
16954;SDS011;8594;52.052;8.354;2024-02-28T13:26:10;83.77;;;31.50;;
16954;SDS011;8594;52.052;8.354;2024-02-28T13:28:42;83.90;;;30.87;;
16954;SDS011;8594;52.052;8.354;2024-02-28T13:31:09;98.33;;;35.23;;
16954;SDS011;8594;52.052;8.354;2024-02-28T13:33:37;85.70;;;31.27;;
16954;SDS011;8594;52.052;8.354;2024-02-28T13:36:06;88.50;;;32.23;;
16954;SDS011;8594;52.052;8.354;2024-02-28T13:38:34;84.87;;;31.40;;
16954;SDS011;8594;52.052;8.354;2024-02-28T13:41:01;94.57;;;34.23;;
16954;SDS011;8594;52.052;8.354;2024-02-28T13:43:28;88.07;;;32.07;;
16954;SDS011;8594;52.052;8.354;2024-02-28T13:45:55;81.20;;;30.20;;
16954;SDS011;8594;52.052;8.354;2024-02-28T13:48:25;81.63;;;30.90;;
16954;SDS011;8594;52.052;8.354;2024-02-28T13:50:54;80.47;;;29.83;;
16954;SDS011;8594;52.052;8.354;2024-02-28T13:53:21;74.27;;;30.20;;
16954;SDS011;8594;52.052;8.354;2024-02-28T13:55:49;81.47;;;31.50;;
16954;SDS011;8594;52.052;8.354;2024-02-28T13:58:16;80.37;;;30.80;;
16954;SDS011;8594;52.052;8.354;2024-02-28T14:00:44;82.73;;;30.97;;
16954;SDS011;8594;52.052;8.354;2024-02-28T14:03:11;77.23;;;29.60;;
16954;SDS011;8594;52.052;8.354;2024-02-28T14:05:39;83.37;;;32.00;;
16954;SDS011;8594;52.052;8.354;2024-02-28T14:08:07;76.13;;;29.87;;
16954;SDS011;8594;52.052;8.354;2024-02-28T14:10:36;79.63;;;29.97;;
16954;SDS011;8594;52.052;8.354;2024-02-28T14:13:04;75.97;;;29.37;;
16954;SDS011;8594;52.052;8.354;2024-02-28T14:15:31;72.33;;;28.27;;
16954;SDS011;8594;52.052;8.354;2024-02-28T14:17:58;79.50;;;31.07;;
16954;SDS011;8594;52.052;8.354;2024-02-28T14:20:24;74.87;;;30.20;;
16954;SDS011;8594;52.052;8.354;2024-02-28T14:22:52;82.13;;;31.13;;
16954;SDS011;8594;52.052;8.354;2024-02-28T14:25:20;74.77;;;29.80;;
16954;SDS011;8594;52.052;8.354;2024-02-28T14:27:47;79.57;;;31.53;;
16954;SDS011;8594;52.052;8.354;2024-02-28T14:30:14;72.10;;;31.03;;
16954;SDS011;8594;52.052;8.354;2024-02-28T14:32:42;79.50;;;31.33;;
16954;SDS011;8594;52.052;8.354;2024-02-28T14:35:10;73.53;;;29.27;;